Time;durP1;ratioP1;P1;durP2;ratioP2;P2;SDS_P1;SDS_P2;PMS_P1;PMS_P2;Temp;Humidity;BMP_temperature;BMP_pressure;BME280_temperature;BME280_humidity;BME280_pressure;Samples;Min_cycle;Max_cycle;Signal;HPM_P1;HPM_P2
2021/04/25 00:00:39;;;;;;;3.95;2.42;;;12.10;49.30;;;;;;4958525;28;20316;-90
2021/04/25 00:03:05;;;;;;;3.80;2.20;;;12.10;49.30;;;;;;4960158;28;20023;-88
2021/04/25 00:05:31;;;;;;;3.45;2.13;;;12.10;49.40;;;;;;4957394;28;20122;-88
2021/04/25 00:07:57;;;;;;;3.60;2.20;;;12.10;49.50;;;;;;4964677;28;20051;-88
2021/04/25 00:10:26;;;;;;;2.92;2.08;;;12.10;49.50;;;;;;4958420;28;20035;-88
2021/04/25 00:12:54;;;;;;;3.75;2.22;;;12.00;49.50;;;;;;4958651;28;20030;-88
2021/04/25 00:15:31;;;;;;;3.42;2.40;;;12.00;49.60;;;;;;4939056;29;20046;-90
2021/04/25 00:17:57;;;;;;;3.35;2.10;;;12.00;49.70;;;;;;4947918;28;20114;-89
2021/04/25 00:20:23;;;;;;;3.38;2.10;;;11.90;49.60;;;;;;4945627;28;20114;-88
2021/04/25 00:22:49;;;;;;;4.10;2.20;;;12.00;49.70;;;;;;4926058;28;20074;-88
2021/04/25 00:25:16;;;;;;;3.22;1.92;;;11.90;49.70;;;;;;4942132;28;20027;-88
2021/04/25 00:27:45;;;;;;;3.42;1.98;;;11.90;49.80;;;;;;4943191;28;20098;-88
2021/04/25 00:30:15;;;;;;;3.85;2.15;;;11.80;49.80;;;;;;4939119;29;20038;-88
2021/04/25 00:32:41;;;;;;;3.35;2.30;;;11.90;50.00;;;;;;4919413;29;20055;-89
2021/04/25 00:35:10;;;;;;;3.47;2.15;;;11.80;49.90;;;;;;4935332;29;20499;-87
2021/04/25 00:37:40;;;;;;;3.97;2.40;;;11.80;50.00;;;;;;4920612;29;20036;-88
2021/04/25 00:40:09;;;;;;;3.72;2.05;;;11.80;50.00;;;;;;4935099;29;20063;-89
2021/04/25 00:42:35;;;;;;;3.72;2.30;;;11.80;50.10;;;;;;4935508;29;20043;-88
2021/04/25 00:45:03;;;;;;;2.90;1.98;;;11.70;50.10;;;;;;4935704;29;20078;-88
2021/04/25 00:47:29;;;;;;;3.17;2.05;;;11.70;50.10;;;;;;4935207;29;20062;-89
2021/04/25 00:49:58;;;;;;;4.53;2.60;;;11.70;50.10;;;;;;4935533;29;20027;-88
2021/04/25 00:52:27;;;;;;;3.92;2.40;;;11.70;50.20;;;;;;4940876;29;20028;-89
2021/04/25 00:54:54;;;;;;;3.42;2.05;;;11.70;50.30;;;;;;4929454;29;20046;-88
2021/04/25 00:57:21;;;;;;;3.08;2.00;;;11.70;50.30;;;;;;4918066;29;20024;-89
2021/04/25 00:59:47;;;;;;;3.88;2.22;;;11.60;50.30;;;;;;4935489;29;20028;-87
2021/04/25 01:02:16;;;;;;;3.80;2.35;;;11.60;50.30;;;;;;4919781;29;20055;-89
2021/04/25 01:04:42;;;;;;;3.83;2.25;;;11.60;50.30;;;;;;4919436;29;20040;-88
2021/04/25 01:07:11;;;;;;;4.03;2.30;;;11.60;50.40;;;;;;4935643;29;20042;-88
2021/04/25 01:09:46;;;;;;;3.67;2.22;;;11.60;50.40;;;;;;4934735;29;20028;-89
2021/04/25 01:12:12;;;;;;;3.78;2.40;;;11.60;50.40;;;;;;4942642;29;20138;-88
2021/04/25 01:14:38;;;;;;;4.40;2.42;;;11.60;50.50;;;;;;4935999;29;20115;-89
2021/04/25 01:17:06;;;;;;;3.60;2.20;;;11.50;50.50;;;;;;4920135;29;20080;-89
2021/04/25 01:19:39;;;;;;;2.85;1.90;;;11.50;50.50;;;;;;4918446;29;20083;-90
2021/04/25 01:22:07;;;;;;;3.67;2.33;;;11.50;50.60;;;;;;4917828;29;20020;-90
2021/04/25 01:24:33;;;;;;;2.55;1.88;;;11.50;50.50;;;;;;4919257;29;20032;-89
2021/04/25 01:27:05;;;;;;;4.93;2.70;;;11.50;50.60;;;;;;4920535;29;20032;-89
2021/04/25 01:29:31;;;;;;;3.65;2.30;;;11.40;50.60;;;;;;4918456;29;20095;-89
2021/04/25 01:31:57;;;;;;;3.70;2.22;;;11.40;50.60;;;;;;4936357;29;20039;-89
2021/04/25 01:34:29;;;;;;;3.58;2.10;;;11.40;50.60;;;;;;4938803;29;20030;-89
2021/04/25 01:36:57;;;;;;;3.45;2.20;;;11.30;50.60;;;;;;4923524;29;20468;-89
2021/04/25 01:39:31;;;;;;;3.00;2.00;;;11.30;50.60;;;;;;4939835;29;20114;-90
2021/04/25 01:41:59;;;;;;;3.88;2.40;;;11.30;50.70;;;;;;4931136;29;20105;-89
2021/04/25 01:44:28;;;;;;;4.13;2.10;;;11.30;50.70;;;;;;4942386;29;20053;-89
2021/04/25 01:46:54;;;;;;;3.25;2.15;;;11.20;50.70;;;;;;4922360;29;20118;-88
2021/04/25 01:49:23;;;;;;;2.88;1.85;;;11.20;50.70;;;;;;4938489;29;20436;-89
2021/04/25 01:51:51;;;;;;;3.25;2.28;;;11.20;50.70;;;;;;4938917;29;20016;-89
2021/04/25 01:54:17;;;;;;;4.28;2.10;;;11.20;50.70;;;;;;4938724;29;20492;-89
2021/04/25 01:56:45;;;;;;;4.05;2.50;;;11.10;50.70;;;;;;4938241;29;20074;-88
2021/04/25 01:59:14;;;;;;;3.50;2.25;;;11.10;50.70;;;;;;4922760;29;20091;-89
2021/04/25 02:01:40;;;;;;;3.70;2.42;;;11.10;50.80;;;;;;4939435;29;20212;-90
2021/04/25 02:04:05;;;;;;;3.17;2.20;;;11.10;50.80;;;;;;4922594;29;20087;-88
2021/04/25 02:06:35;;;;;;;3.05;2.05;;;11.00;50.80;;;;;;4922889;29;20042;-90
2021/04/25 02:09:00;;;;;;;2.80;1.83;;;11.00;50.80;;;;;;4934690;29;20036;-88
2021/04/25 02:11:26;;;;;;;2.45;1.77;;;10.90;50.70;;;;;;4918061;29;20488;-89
2021/04/25 02:13:52;;;;;;;2.85;2.15;;;11.00;50.90;;;;;;4938349;29;20344;-89
2021/04/25 02:16:23;;;;;;;2.47;1.75;;;10.90;50.80;;;;;;4913228;29;20087;-89
2021/04/25 02:18:49;;;;;;;3.50;1.80;;;10.90;50.90;;;;;;4932864;29;20045;-89
2021/04/25 02:21:15;;;;;;;2.67;1.88;;;10.90;50.90;;;;;;4937904;29;20012;-89
2021/04/25 02:23:51;;;;;;;3.20;1.85;;;10.80;50.90;;;;;;4907918;29;20036;-88
2021/04/25 02:26:17;;;;;;;3.33;1.95;;;10.80;50.90;;;;;;4937776;29;20020;-89
2021/04/25 02:28:45;;;;;;;2.72;1.75;;;10.80;50.90;;;;;;4921924;29;20060;-88
2021/04/25 02:31:11;;;;;;;2.83;1.90;;;10.80;51.00;;;;;;4921899;29;20436;-89
2021/04/25 02:33:37;;;;;;;3.05;1.95;;;10.80;51.00;;;;;;4921536;29;20039;-89
2021/04/25 02:36:05;;;;;;;2.50;1.75;;;10.70;50.90;;;;;;4944933;29;20039;-89
2021/04/25 02:38:32;;;;;;;3.17;1.85;;;10.70;51.00;;;;;;4919516;29;20129;-89
2021/04/25 02:41:03;;;;;;;3.33;1.90;;;10.70;51.00;;;;;;4927539;29;20040;-88
2021/04/25 02:43:29;;;;;;;2.85;1.95;;;10.70;51.00;;;;;;4921355;29;20035;-88
2021/04/25 02:45:56;;;;;;;2.72;1.60;;;10.60;51.00;;;;;;4937198;29;20050;-89
2021/04/25 02:48:22;;;;;;;2.75;1.63;;;10.60;51.00;;;;;;4938045;29;20023;-89
2021/04/25 02:50:55;;;;;;;2.70;1.85;;;10.60;51.10;;;;;;4936956;29;20472;-90
2021/04/25 02:53:28;;;;;;;3.22;1.90;;;10.60;51.10;;;;;;4938638;29;20456;-89
2021/04/25 02:55:59;;;;;;;3.40;1.80;;;10.60;51.10;;;;;;4937913;29;20220;-89
2021/04/25 02:58:24;;;;;;;2.33;1.73;;;10.50;51.00;;;;;;4937402;29;20561;-89
2021/04/25 03:00:53;;;;;;;2.88;1.77;;;10.50;51.00;;;;;;4923612;29;20031;-89
2021/04/25 03:03:19;;;;;;;1.90;1.63;;;10.50;51.10;;;;;;4922691;29;20062;-89
2021/04/25 03:05:49;;;;;;;1.85;1.60;;;10.50;51.10;;;;;;4937204;29;20074;-88
2021/04/25 03:08:24;;;;;;;2.63;1.40;;;10.40;51.10;;;;;;4937174;29;20032;-89
2021/04/25 03:10:55;;;;;;;3.85;2.17;;;10.40;51.10;;;;;;4920585;29;20115;-89
2021/04/25 03:13:21;;;;;;;2.88;2.03;;;10.40;51.10;;;;;;4921759;29;20032;-90
2021/04/25 03:15:49;;;;;;;2.97;1.75;;;10.40;51.10;;;;;;4925097;29;20019;-88
2021/04/25 03:18:19;;;;;;;2.58;1.73;;;10.40;51.10;;;;;;4915493;29;20030;-90
2021/04/25 03:20:45;;;;;;;2.30;1.80;;;10.30;51.10;;;;;;4916948;29;20385;-90
2021/04/25 03:23:13;;;;;;;2.72;1.63;;;10.30;51.10;;;;;;4920275;29;20031;-89
2021/04/25 03:25:41;;;;;;;3.08;1.70;;;10.30;51.20;;;;;;4923931;29;20035;-89
2021/04/25 03:28:07;;;;;;;2.80;1.75;;;10.30;51.20;;;;;;4926311;29;20040;-90
2021/04/25 03:30:33;;;;;;;2.75;1.85;;;10.30;51.20;;;;;;4941463;29;20031;-89
2021/04/25 03:33:05;;;;;;;2.63;1.58;;;10.30;51.20;;;;;;4936614;29;20114;-89
2021/04/25 03:35:36;;;;;;;2.40;1.67;;;10.20;51.20;;;;;;4936793;29;20036;-89
2021/04/25 03:38:05;;;;;;;2.20;1.83;;;10.20;51.20;;;;;;4955066;29;20083;-89
2021/04/25 03:40:31;;;;;;;2.95;1.92;;;10.20;51.30;;;;;;4923480;29;20034;-89
2021/04/25 03:43:00;;;;;;;2.30;1.70;;;10.20;51.20;;;;;;4937947;29;20039;-89
2021/04/25 03:45:26;;;;;;;3.20;1.73;;;10.20;51.30;;;;;;4927004;29;20032;-89
2021/04/25 03:47:55;;;;;;;2.85;1.73;;;10.10;51.20;;;;;;4936634;29;20472;-90
2021/04/25 03:50:24;;;;;;;2.28;1.65;;;10.20;51.30;;;;;;4930195;29;20043;-90
2021/04/25 03:52:50;;;;;;;2.50;1.55;;;10.10;51.30;;;;;;4939117;29;20214;-89
2021/04/25 03:55:20;;;;;;;3.20;1.90;;;10.10;51.30;;;;;;4935678;29;20065;-90
2021/04/25 03:57:52;;;;;;;2.15;1.45;;;10.10;51.30;;;;;;4935536;29;20038;-89
2021/04/25 04:00:19;;;;;;;2.63;1.48;;;10.10;51.30;;;;;;4926705;29;20039;-89
2021/04/25 04:02:46;;;;;;;2.40;1.65;;;10.10;51.30;;;;;;4935763;29;20026;-89
2021/04/25 04:05:17;;;;;;;3.30;2.15;;;10.10;51.40;;;;;;4943963;29;20071;-90
2021/04/25 04:07:43;;;;;;;2.80;1.52;;;10.10;51.40;;;;;;4936204;29;20036;-90
2021/04/25 04:10:10;;;;;;;2.85;1.88;;;10.00;51.30;;;;;;4921443;29;20392;-89
2021/04/25 04:12:36;;;;;;;1.83;1.50;;;10.00;52.00;;;;;;4916731;29;20043;-91
2021/04/25 04:15:05;;;;;;;2.35;1.65;;;10.00;51.40;;;;;;4941141;29;20102;-89
2021/04/25 04:17:33;;;;;;;2.90;1.70;;;10.00;51.40;;;;;;4936314;29;20036;-89
2021/04/25 04:20:06;;;;;;;3.38;1.80;;;10.00;51.40;;;;;;4947151;28;20555;-89
2021/04/25 04:22:35;;;;;;;2.17;1.50;;;10.00;51.50;;;;;;4932426;29;20082;-89
2021/04/25 04:25:01;;;;;;;2.95;1.50;;;10.00;51.40;;;;;;4942810;29;20039;-89
2021/04/25 04:27:26;;;;;;;2.08;1.48;;;10.00;51.50;;;;;;4941822;28;20061;-90
2021/04/25 04:29:55;;;;;;;2.15;1.50;;;10.00;51.50;;;;;;4946119;28;20027;-89
2021/04/25 04:32:21;;;;;;;2.33;1.45;;;10.00;51.50;;;;;;4958388;28;20057;-90
2021/04/25 04:34:49;;;;;;;2.33;1.63;;;10.00;51.50;;;;;;4941709;28;20427;-89
2021/04/25 04:37:15;;;;;;;1.80;1.40;;;10.00;51.60;;;;;;4975439;28;20033;-89
2021/04/25 04:39:44;;;;;;;2.92;1.80;;;10.00;51.60;;;;;;4943812;28;20066;-90
2021/04/25 04:42:18;;;;;;;1.60;1.40;;;10.00;51.60;;;;;;4957672;28;20034;-90
2021/04/25 04:44:47;;;;;;;2.22;1.58;;;9.90;51.60;;;;;;4943234;28;20031;-90
2021/04/25 04:47:17;;;;;;;2.75;1.60;;;9.90;51.50;;;;;;4928271;28;20027;-90
2021/04/25 04:49:43;;;;;;;2.28;1.42;;;9.90;51.60;;;;;;4945090;28;20038;-89
2021/04/25 04:52:12;;;;;;;2.30;1.55;;;9.90;51.60;;;;;;4957690;28;20026;-90
2021/04/25 04:54:40;;;;;;;2.20;1.42;;;9.90;51.70;;;;;;4952081;28;20043;-90
2021/04/25 04:57:06;;;;;;;2.40;1.58;;;9.90;51.70;;;;;;4949034;28;20026;-89
2021/04/25 04:59:32;;;;;;;1.85;1.38;;;9.90;51.70;;;;;;4945723;28;20039;-89
2021/04/25 05:02:00;;;;;;;1.63;1.33;;;9.90;51.70;;;;;;4942267;28;20122;-89
2021/04/25 05:04:26;;;;;;;2.10;1.58;;;9.90;51.70;;;;;;4944960;28;20129;-89
2021/04/25 05:06:52;;;;;;;2.22;1.48;;;9.90;51.70;;;;;;4967493;28;20475;-88
2021/04/25 05:09:23;;;;;;;1.80;1.45;;;9.90;51.70;;;;;;4958209;28;20034;-89
2021/04/25 05:11:52;;;;;;;1.98;1.48;;;9.90;51.70;;;;;;4974570;28;20099;-89
2021/04/25 05:14:18;;;;;;;2.63;1.48;;;9.90;51.80;;;;;;4941564;28;20039;-89
2021/04/25 05:16:44;;;;;;;3.28;1.52;;;9.90;51.70;;;;;;4957434;28;20038;-89
2021/04/25 05:19:10;;;;;;;1.80;1.45;;;9.90;52.00;;;;;;4957517;28;20023;-89
2021/04/25 05:21:41;;;;;;;1.38;1.27;;;9.90;51.80;;;;;;4956518;28;20071;-90
2021/04/25 05:24:08;;;;;;;1.33;1.20;;;9.90;51.80;;;;;;4934231;28;20487;-89
2021/04/25 05:26:34;;;;;;;1.52;1.35;;;9.90;51.80;;;;;;4944803;28;20034;-91
2021/04/25 05:29:00;;;;;;;1.75;1.25;;;9.90;51.80;;;;;;4957699;28;20046;-89
2021/04/25 05:31:27;;;;;;;2.60;1.35;;;9.90;51.80;;;;;;4959507;28;20031;-88
2021/04/25 05:33:54;;;;;;;1.52;1.30;;;9.90;51.80;;;;;;4944071;28;20027;-89
2021/04/25 05:36:19;;;;;;;1.33;1.20;;;9.90;51.80;;;;;;4941185;28;20022;-89
2021/04/25 05:38:51;;;;;;;1.33;1.10;;;9.90;51.80;;;;;;4926909;28;20022;-90
2021/04/25 05:41:17;;;;;;;1.75;1.20;;;9.90;51.80;;;;;;4960626;28;20022;-88
2021/04/25 05:43:46;;;;;;;2.67;1.65;;;9.90;51.80;;;;;;4956930;28;20019;-90
2021/04/25 05:46:20;;;;;;;1.60;1.30;;;9.90;51.80;;;;;;4931638;28;20041;-90
2021/04/25 05:48:49;;;;;;;4.20;1.20;;;9.90;51.80;;;;;;4951719;28;20018;-91
2021/04/25 05:51:16;;;;;;;1.48;1.38;;;9.90;51.80;;;;;;4957677;28;20027;-90
2021/04/25 05:53:42;;;;;;;1.65;1.50;;;9.90;51.80;;;;;;4957227;28;20089;-89
2021/04/25 05:56:10;;;;;;;3.38;1.50;;;9.90;51.80;;;;;;4940460;28;20038;-91
2021/04/25 05:58:36;;;;;;;2.83;1.45;;;9.90;51.80;;;;;;4968284;28;20030;-89
2021/04/25 06:01:05;;;;;;;2.13;1.27;;;9.90;51.80;;;;;;4951936;28;20549;-91
2021/04/25 06:03:33;;;;;;;2.40;1.40;;;9.90;51.80;;;;;;4958071;28;20066;-91
2021/04/25 06:05:59;;;;;;;1.30;1.20;;;9.90;51.80;;;;;;4953652;28;20053;-90
2021/04/25 06:08:25;;;;;;;2.47;1.65;;;9.90;51.80;;;;;;4940595;28;20110;-89
2021/04/25 06:10:53;;;;;;;1.50;1.40;;;9.90;51.80;;;;;;4943404;28;20118;-91
2021/04/25 06:13:19;;;;;;;1.83;1.30;;;9.90;51.80;;;;;;4963577;28;20034;-90
2021/04/25 06:15:44;;;;;;;1.85;1.20;;;9.90;51.80;;;;;;4957359;28;20031;-91
2021/04/25 06:18:10;;;;;;;1.90;1.42;;;10.00;51.90;;;;;;4958148;28;20030;-91
2021/04/25 06:20:36;;;;;;;2.28;1.40;;;10.00;51.90;;;;;;4959703;28;20019;-91
2021/04/25 06:23:07;;;;;;;1.73;1.30;;;10.00;51.90;;;;;;4951243;28;20490;-90
2021/04/25 06:25:33;;;;;;;2.28;1.20;;;10.00;51.90;;;;;;4977362;28;20471;-89
2021/04/25 06:27:59;;;;;;;3.25;1.40;;;10.00;51.90;;;;;;4927927;28;20190;-90
2021/04/25 06:30:25;;;;;;;1.98;1.65;;;10.00;51.90;;;;;;4944281;28;20034;-90
2021/04/25 06:32:51;;;;;;;1.58;1.20;;;10.00;51.90;;;;;;4944951;28;20082;-90
2021/04/25 06:35:17;;;;;;;1.33;1.23;;;10.00;51.90;;;;;;4960138;28;20045;-89
2021/04/25 06:37:45;;;;;;;2.47;1.30;;;10.00;51.90;;;;;;4966493;28;20026;-88
2021/04/25 06:40:13;;;;;;;2.03;1.50;;;10.00;51.90;;;;;;4965919;28;20031;-90
2021/04/25 06:42:39;;;;;;;2.25;1.30;;;10.00;51.90;;;;;;4964528;28;20069;-89
2021/04/25 06:45:12;;;;;;;1.48;1.23;;;10.00;51.90;;;;;;4968665;28;20043;-89
2021/04/25 06:47:38;;;;;;;2.60;1.70;;;10.10;51.90;;;;;;4960601;28;20027;-88
2021/04/25 06:50:11;;;;;;;3.15;1.50;;;10.00;51.90;;;;;;4965722;28;20034;-90
2021/04/25 06:52:39;;;;;;;2.10;1.40;;;10.10;51.90;;;;;;4946676;28;20018;-91
2021/04/25 06:55:06;;;;;;;2.42;1.40;;;10.10;51.90;;;;;;4948746;28;20027;-90
2021/04/25 06:57:32;;;;;;;2.35;1.20;;;10.10;51.90;;;;;;4944478;28;20463;-91
2021/04/25 07:00:00;;;;;;;2.30;1.33;;;10.10;51.90;;;;;;4976933;28;20026;-89
2021/04/25 07:02:33;;;;;;;1.92;1.20;;;10.10;51.90;;;;;;4958382;28;20039;-92
2021/04/25 07:05:04;;;;;;;2.15;1.15;;;10.20;51.90;;;;;;4926669;29;20039;-92
2021/04/25 07:07:38;;;;;;;1.77;1.25;;;10.10;51.80;;;;;;4963021;28;20031;-89
2021/04/25 07:10:08;;;;;;;2.35;1.27;;;10.20;51.90;;;;;;4970031;28;20034;-91
2021/04/25 07:12:34;;;;;;;2.75;1.27;;;10.20;51.90;;;;;;4946170;28;20084;-90
2021/04/25 07:15:03;;;;;;;3.42;1.20;;;10.20;51.90;;;;;;4943805;28;20034;-90
2021/04/25 07:17:31;;;;;;;2.05;1.10;;;10.20;51.80;;;;;;4980354;28;20019;-90
2021/04/25 07:20:02;;;;;;;2.92;1.83;;;10.20;51.80;;;;;;4944484;28;20030;-92
2021/04/25 07:22:30;;;;;;;1.42;1.20;;;10.30;51.90;;;;;;4959561;28;20041;-90
2021/04/25 07:24:56;;;;;;;1.33;1.23;;;10.30;51.80;;;;;;4962879;28;20030;-90
2021/04/25 07:27:25;;;;;;;1.15;1.00;;;10.30;52.20;;;;;;4961190;28;20079;-90
2021/04/25 07:29:53;;;;;;;1.92;1.50;;;10.30;51.80;;;;;;4943831;28;20126;-89
2021/04/25 07:32:19;;;;;;;1.25;1.10;;;10.30;51.80;;;;;;4962531;28;20174;-91
2021/04/25 07:34:46;;;;;;;2.42;1.40;;;10.40;51.80;;;;;;4980973;28;20042;-89
2021/04/25 07:37:14;;;;;;;2.13;1.27;;;10.40;51.90;;;;;;4949691;28;20046;-91
2021/04/25 07:39:42;;;;;;;1.05;0.93;;;10.40;51.90;;;;;;4953872;28;20471;-90
2021/04/25 07:42:14;;;;;;;2.20;1.30;;;10.40;51.80;;;;;;4970184;28;20034;-89
2021/04/25 07:44:43;;;;;;;1.08;1.02;;;10.50;51.90;;;;;;4954716;28;20035;-87
2021/04/25 07:47:12;;;;;;;1.60;1.20;;;10.50;51.80;;;;;;4942901;28;20031;-86
2021/04/25 07:49:39;;;;;;;1.77;1.25;;;10.50;51.90;;;;;;4963462;28;20078;-86
2021/04/25 07:52:05;;;;;;;1.25;1.10;;;10.50;51.80;;;;;;4941742;28;20067;-87
2021/04/25 07:54:31;;;;;;;0.80;0.80;;;10.60;51.90;;;;;;4942301;28;20039;-88
2021/04/25 07:56:57;;;;;;;1.55;1.10;;;10.60;51.90;;;;;;4943431;28;20034;-86
2021/04/25 07:59:23;;;;;;;1.20;1.00;;;10.60;51.90;;;;;;4959661;28;20522;-87
2021/04/25 08:01:49;;;;;;;1.75;1.05;;;10.60;51.80;;;;;;4943215;28;20057;-87
2021/04/25 08:04:17;;;;;;;2.40;1.50;;;10.60;51.80;;;;;;4950912;28;20035;-87
2021/04/25 08:06:43;;;;;;;1.48;1.02;;;10.70;51.80;;;;;;4961541;28;20045;-86
2021/04/25 08:09:12;;;;;;;2.03;0.90;;;10.70;51.80;;;;;;4940662;28;20092;-87
2021/04/25 08:11:38;;;;;;;1.00;1.00;;;10.70;51.90;;;;;;4954529;28;20023;-88
2021/04/25 08:14:05;;;;;;;1.77;0.90;;;10.80;52.50;;;;;;4960321;28;20023;-88
2021/04/25 08:16:31;;;;;;;1.98;1.10;;;10.80;51.80;;;;;;4941610;28;20080;-88
2021/04/25 08:18:59;;;;;;;1.23;1.13;;;10.80;51.80;;;;;;4960156;28;20165;-88
2021/04/25 08:21:27;;;;;;;2.35;1.05;;;10.80;51.80;;;;;;4949347;28;20109;-87
2021/04/25 08:23:52;;;;;;;1.48;0.90;;;10.90;51.80;;;;;;4958147;28;20485;-88
2021/04/25 08:26:18;;;;;;;2.00;1.05;;;10.90;51.80;;;;;;4971971;28;20053;-88
2021/04/25 08:28:48;;;;;;;1.23;1.00;;;10.90;51.70;;;;;;4946142;29;20059;-89
2021/04/25 08:31:14;;;;;;;2.38;1.35;;;10.90;51.80;;;;;;4920523;29;20058;-91
2021/04/25 08:33:42;;;;;;;1.10;1.00;;;11.00;51.70;;;;;;4938969;29;20492;-83
2021/04/25 08:36:13;;;;;;;1.95;1.30;;;11.00;51.70;;;;;;4936030;29;20032;-90
2021/04/25 08:38:51;;;;;;;1.75;1.10;;;11.00;51.70;;;;;;4948444;29;20468;-90
2021/04/25 08:41:20;;;;;;;1.60;1.20;;;11.10;51.70;;;;;;4931127;29;20554;-89
2021/04/25 08:43:50;;;;;;;1.65;0.90;;;11.10;51.70;;;;;;4928237;29;20448;-91
2021/04/25 08:46:19;;;;;;;1.73;1.10;;;11.10;51.60;;;;;;4940131;29;20078;-89
2021/04/25 08:48:52;;;;;;;1.88;1.20;;;11.10;51.60;;;;;;4924374;29;20020;-91
2021/04/25 08:51:22;;;;;;;0.85;0.85;;;11.20;51.70;;;;;;4943517;29;20075;-91
2021/04/25 08:53:53;;;;;;;1.00;0.90;;;11.20;51.60;;;;;;4942292;29;20034;-89
2021/04/25 08:56:20;;;;;;;1.45;0.93;;;11.20;51.60;;;;;;4921898;29;20028;-91
2021/04/25 08:59:00;;;;;;;;;;;;;;;;;;;;;
2021/04/25 09:01:34;;;;;;;1.88;1.00;;;11.30;51.60;;;;;;4939733;29;20047;-87
2021/04/25 09:04:05;;;;;;;1.35;0.90;;;11.30;51.50;;;;;;4935059;29;20113;-88
2021/04/25 09:07:03;;;;;;;2.72;1.10;;;11.40;51.50;;;;;;4939542;29;20031;-86
2021/04/25 09:09:48;;;;;;;2.25;1.10;;;11.40;51.60;;;;;;4919442;29;20044;-86
2021/04/25 09:12:35;;;;;;;1.35;0.98;;;11.50;51.60;;;;;;4928514;29;20027;-87
2021/04/25 09:15:22;;;;;;;2.83;1.10;;;11.50;51.60;;;;;;4942919;29;20039;-87
2021/04/25 09:17:58;;;;;;;1.10;1.00;;;11.50;51.40;;;;;;4947622;29;20031;-86
2021/04/25 09:20:45;;;;;;;1.20;0.90;;;11.60;51.50;;;;;;4950803;29;20053;-89
2021/04/25 09:23:37;;;;;;;2.03;1.50;;;11.60;51.40;;;;;;4936002;29;20091;-88
2021/04/25 09:26:06;;;;;;;2.00;1.25;;;11.70;51.40;;;;;;4938840;29;20039;-90
2021/04/25 09:28:36;;;;;;;1.73;1.30;;;11.70;51.40;;;;;;4958700;28;20057;-91
2021/04/25 09:31:14;;;;;;;1.65;1.15;;;11.70;51.30;;;;;;4959190;28;20035;-90
2021/04/25 09:33:58;;;;;;;1.40;0.98;;;11.80;51.30;;;;;;4956032;28;20037;-89
2021/04/25 09:36:29;;;;;;;2.10;1.00;;;11.80;51.30;;;;;;4925889;28;20029;-89
2021/04/25 09:39:33;;;;;;;1.27;1.00;;;11.90;51.30;;;;;;4975924;28;20027;-91
2021/04/25 09:42:02;;;;;;;1.95;1.00;;;11.90;51.30;;;;;;4957812;28;20030;-87
2021/04/25 09:44:35;;;;;;;1.05;1.02;;;12.00;51.20;;;;;;4937947;29;20399;-88
2021/04/25 09:47:04;;;;;;;1.50;1.20;;;12.00;51.20;;;;;;4947829;28;20483;-88
2021/04/25 09:49:52;;;;;;;1.33;1.10;;;12.10;51.20;;;;;;4953503;29;20019;-87
2021/04/25 09:52:37;;;;;;;1.83;1.20;;;12.10;51.30;;;;;;4971046;28;20027;-86
2021/04/25 09:55:31;;;;;;;1.45;0.93;;;12.20;51.20;;;;;;4951190;28;20019;-87
2021/04/25 09:58:11;;;;;;;1.15;0.80;;;12.20;51.20;;;;;;4977300;28;20105;-87
2021/04/25 10:00:40;;;;;;;2.20;1.25;;;12.30;51.10;;;;;;4948684;28;20463;-86
2021/04/25 10:03:11;;;;;;;3.17;1.00;;;12.30;51.00;;;;;;4944292;28;20087;-86
2021/04/25 10:05:38;;;;;;;1.15;1.00;;;12.30;51.00;;;;;;4952831;28;20042;-86
2021/04/25 10:08:05;;;;;;;1.85;1.10;;;12.40;51.00;;;;;;4948531;28;20034;-85
2021/04/25 10:10:31;;;;;;;1.50;0.90;;;12.40;51.00;;;;;;4958032;28;20060;-85
2021/04/25 10:12:58;;;;;;;1.98;0.98;;;12.50;51.00;;;;;;4947890;28;20053;-87
2021/04/25 10:15:24;;;;;;;0.90;0.77;;;12.50;50.90;;;;;;4943830;28;20023;-86
2021/04/25 10:17:54;;;;;;;2.97;1.17;;;12.60;50.90;;;;;;4950829;28;20033;-82
2021/04/25 10:20:22;;;;;;;1.75;0.93;;;12.60;50.80;;;;;;4961841;28;20030;-88
2021/04/25 10:22:49;;;;;;;2.10;1.10;;;12.70;50.80;;;;;;4945340;28;20031;-87
2021/04/25 10:25:18;;;;;;;1.13;1.00;;;12.70;50.70;;;;;;4960311;28;20193;-93
2021/04/25 10:27:51;;;;;;;2.78;1.10;;;12.80;50.70;;;;;;4944539;28;20043;-89
2021/04/25 10:30:21;;;;;;;0.90;0.90;;;12.80;50.60;;;;;;4960942;28;20035;-90
2021/04/25 10:32:55;;;;;;;1.85;1.05;;;12.90;50.60;;;;;;4945148;28;20129;-89
2021/04/25 10:35:23;;;;;;;1.52;0.95;;;13.00;50.60;;;;;;4944231;28;20077;-88
2021/04/25 10:37:50;;;;;;;1.63;0.98;;;13.00;50.50;;;;;;4960490;28;20034;-88
2021/04/25 10:40:29;;;;;;;1.77;1.08;;;13.10;50.50;;;;;;4944151;28;20034;-89
2021/04/25 10:43:11;;;;;;;2.55;1.10;;;13.10;50.50;;;;;;4949021;28;20490;-88
2021/04/25 10:45:57;;;;;;;2.35;1.10;;;13.20;50.50;;;;;;4966903;28;20034;-91
2021/04/25 10:48:36;;;;;;;1.48;1.00;;;13.20;50.50;;;;;;4944515;28;20029;-89
2021/04/25 10:51:08;;;;;;;1.02;0.90;;;13.30;50.40;;;;;;4944233;28;20027;-89
2021/04/25 10:53:37;;;;;;;1.95;1.02;;;13.30;50.40;;;;;;4944237;28;20043;-89
2021/04/25 10:56:30;;;;;;;1.23;1.10;;;13.40;50.40;;;;;;4960085;28;20033;-88
2021/04/25 10:59:27;;;;;;;1.75;1.00;;;13.40;50.40;;;;;;4959347;28;20467;-88
2021/04/25 11:01:59;;;;;;;2.55;1.15;;;13.50;50.40;;;;;;4934231;28;20109;-89
2021/04/25 11:04:54;;;;;;;3.70;1.15;;;13.50;50.20;;;;;;4959510;28;20042;-88
2021/04/25 11:07:36;;;;;;;3.30;1.10;;;13.60;50.30;;;;;;4959791;28;20043;-88
2021/04/25 11:10:05;;;;;;;2.35;1.08;;;13.60;50.20;;;;;;4971319;28;20085;-87
2021/04/25 11:12:36;;;;;;;1.90;1.10;;;13.70;50.20;;;;;;4959024;28;20019;-88
2021/04/25 11:15:06;;;;;;;0.80;0.80;;;13.70;50.10;;;;;;4960910;28;20085;-88
2021/04/25 11:17:32;;;;;;;1.10;1.00;;;13.80;50.10;;;;;;4951294;28;20011;-84
2021/04/25 11:20:01;;;;;;;1.88;1.10;;;13.80;50.00;;;;;;4959220;28;20027;-89
2021/04/25 11:22:46;;;;;;;2.08;1.10;;;13.90;50.00;;;;;;4948156;28;20054;-92
2021/04/25 11:25:31;;;;;;;1.15;1.00;;;14.00;50.00;;;;;;4959360;28;20037;-85
2021/04/25 11:28:00;;;;;;;2.42;1.30;;;14.00;49.80;;;;;;4954826;28;20042;-83
2021/04/25 11:30:42;;;;;;;2.28;1.17;;;14.10;49.40;;;;;;4963025;28;20039;-88
2021/04/25 11:33:31;;;;;;;1.63;1.08;;;14.10;48.90;;;;;;4957812;28;20112;-87
2021/04/25 11:36:35;;;;;;;3.13;1.40;;;14.20;48.70;;;;;;4973677;28;20034;-89
2021/04/25 11:39:09;;;;;;;;;;;14.20;48.40;;;;;;4949938;28;20061;-88
2021/04/25 11:41:42;;;;;;;2.83;1.30;;;14.20;48.40;;;;;;4953633;28;20009;-88
2021/04/25 11:44:08;;;;;;;1.92;1.15;;;14.20;48.00;;;;;;4944277;28;20459;-87
2021/04/25 11:46:35;;;;;;;3.97;1.20;;;14.20;47.80;;;;;;4962456;28;20081;-87
2021/04/25 11:49:04;;;;;;;1.48;1.30;;;14.20;47.70;;;;;;4965504;28;20467;-85
2021/04/25 11:51:31;;;;;;;1.65;1.10;;;14.30;47.60;;;;;;4955992;28;20046;-90
2021/04/25 11:53:58;;;;;;;2.17;1.23;;;14.30;47.40;;;;;;4977897;28;20026;-86
2021/04/25 11:56:24;;;;;;;2.03;1.00;;;14.30;47.30;;;;;;4939956;29;20122;-83
2021/04/25 11:58:50;;;;;;;2.25;1.10;;;14.40;47.20;;;;;;4960167;28;20052;-86
2021/04/25 12:01:23;;;;;;;1.80;1.10;;;14.40;47.00;;;;;;4943995;28;20026;-88
2021/04/25 12:03:52;;;;;;;2.60;1.20;;;14.40;46.80;;;;;;4962290;28;20026;-89
2021/04/25 12:06:20;;;;;;;2.65;1.27;;;14.50;46.80;;;;;;4943342;28;20034;-87
2021/04/25 12:09:04;;;;;;;2.67;1.20;;;14.50;46.60;;;;;;4945660;28;20447;-86
2021/04/25 12:11:30;;;;;;;2.78;1.20;;;14.50;46.50;;;;;;4961298;28;20139;-84
2021/04/25 12:13:59;;;;;;;2.20;1.17;;;14.60;46.50;;;;;;4962818;28;20464;-87
2021/04/25 12:16:27;;;;;;;2.63;1.30;;;14.60;46.40;;;;;;4954588;28;20114;-89
2021/04/25 12:18:53;;;;;;;1.77;1.20;;;14.60;46.30;;;;;;4941864;28;20019;-90
2021/04/25 12:21:23;;;;;;;2.67;1.13;;;14.60;46.20;;;;;;4945949;28;20023;-88
2021/04/25 12:23:52;;;;;;;4.05;1.23;;;14.70;46.20;;;;;;4958526;28;20031;-86
2021/04/25 12:26:21;;;;;;;3.25;1.30;;;14.80;46.10;;;;;;4954222;28;20502;-85
2021/04/25 12:28:56;;;;;;;2.38;0.98;;;14.80;46.00;;;;;;4976580;28;20177;-86
2021/04/25 12:31:23;;;;;;;;;;;14.90;46.00;;;;;;4942227;28;20490;-91
2021/04/25 12:33:53;;;;;;;2.72;1.30;;;14.90;46.00;;;;;;4961074;28;19910;-90
2021/04/25 12:36:22;;;;;;;2.70;1.23;;;15.00;45.90;;;;;;4958120;28;20034;-85
2021/04/25 12:38:56;;;;;;;2.13;1.17;;;15.00;45.90;;;;;;4945816;28;20446;-91
2021/04/25 12:41:23;;;;;;;1.42;0.93;;;15.00;45.80;;;;;;4935895;29;20027;-90
2021/04/25 12:43:49;;;;;;;1.35;0.95;;;15.00;45.70;;;;;;4968162;28;20069;-89
2021/04/25 12:46:20;;;;;;;1.98;1.10;;;15.10;45.60;;;;;;4955914;28;20440;-89
2021/04/25 12:49:00;;;;;;;2.30;1.15;;;15.10;45.50;;;;;;4952914;28;20030;-89
2021/04/25 12:51:45;;;;;;;1.33;1.02;;;15.20;45.40;;;;;;4942278;28;20043;-89
2021/04/25 12:54:12;;;;;;;3.45;1.20;;;15.20;45.30;;;;;;4958241;28;20114;-90
2021/04/25 12:56:41;;;;;;;2.78;1.10;;;15.20;45.20;;;;;;4933773;29;20539;-90
2021/04/25 12:59:13;;;;;;;3.03;1.30;;;15.30;45.10;;;;;;4968930;28;20062;-88
2021/04/25 13:01:49;;;;;;;2.17;1.30;;;15.30;45.00;;;;;;4949789;28;20027;-91
2021/04/25 13:04:36;;;;;;;1.92;1.20;;;15.30;45.00;;;;;;4975919;28;20026;-87